sensor_id;sensor_type;location;lat;lon;timestamp;pressure;altitude;pressure_sealevel;temperature;humidity
46598;BME280;32318;48.858;8.252;2023-05-20T00:02:48;100424.28;;;12.94;66.18
46598;BME280;32318;48.858;8.252;2023-05-20T00:10:49;100415.97;;;12.81;66.74
46598;BME280;32318;48.858;8.252;2023-05-20T00:18:49;100420.84;;;12.77;68.49
46598;BME280;32318;48.858;8.252;2023-05-20T00:26:49;100406.38;;;12.95;68.46
46598;BME280;32318;48.858;8.252;2023-05-20T00:34:59;100405.47;;;13.02;70.04
46598;BME280;32318;48.858;8.252;2023-05-20T00:43:00;100405.13;;;13.06;68.72
46598;BME280;32318;48.858;8.252;2023-05-20T00:51:00;100399.56;;;13.07;67.53
46598;BME280;32318;48.858;8.252;2023-05-20T00:59:01;100402.69;;;13.19;66.58
46598;BME280;32318;48.858;8.252;2023-05-20T01:07:05;100405.22;;;13.21;67.02
46598;BME280;32318;48.858;8.252;2023-05-20T01:15:11;100407.22;;;13.18;67.15
46598;BME280;32318;48.858;8.252;2023-05-20T01:23:12;100412.44;;;13.12;68.39
46598;BME280;32318;48.858;8.252;2023-05-20T01:31:38;100410.91;;;13.17;68.22
46598;BME280;32318;48.858;8.252;2023-05-20T01:39:40;100402.59;;;13.12;68.63
46598;BME280;32318;48.858;8.252;2023-05-20T01:47:44;100391.38;;;13.09;69.56
46598;BME280;32318;48.858;8.252;2023-05-20T01:55:44;100389.72;;;13.08;68.41
46598;BME280;32318;48.858;8.252;2023-05-20T02:03:44;100368.69;;;13.20;67.55
46598;BME280;32318;48.858;8.252;2023-05-20T02:11:45;100370.88;;;13.16;67.85
46598;BME280;32318;48.858;8.252;2023-05-20T02:19:45;100350.88;;;13.27;67.85
46598;BME280;32318;48.858;8.252;2023-05-20T02:27:46;100346.16;;;13.06;68.67
46598;BME280;32318;48.858;8.252;2023-05-20T02:35:46;100341.25;;;12.86;69.79
46598;BME280;32318;48.858;8.252;2023-05-20T02:43:46;100343.69;;;12.73;70.31
46598;BME280;32318;48.858;8.252;2023-05-20T02:51:47;100352.41;;;12.66;70.66
46598;BME280;32318;48.858;8.252;2023-05-20T02:59:47;100348.06;;;12.65;70.25
46598;BME280;32318;48.858;8.252;2023-05-20T03:07:47;100348.31;;;12.79;69.68
46598;BME280;32318;48.858;8.252;2023-05-20T03:15:47;100351.81;;;12.79;69.55
46598;BME280;32318;48.858;8.252;2023-05-20T03:23:48;100359.03;;;12.79;69.84
46598;BME280;32318;48.858;8.252;2023-05-20T03:31:48;100356.56;;;12.77;69.46
46598;BME280;32318;48.858;8.252;2023-05-20T03:39:48;100368.09;;;12.78;69.74
46598;BME280;32318;48.858;8.252;2023-05-20T03:47:48;100370.09;;;12.76;69.96
46598;BME280;32318;48.858;8.252;2023-05-20T03:55:49;100375.81;;;12.73;70.28
46598;BME280;32318;48.858;8.252;2023-05-20T04:03:50;100368.78;;;12.71;70.36
46598;BME280;32318;48.858;8.252;2023-05-20T04:11:50;100379.31;;;12.73;69.89
46598;BME280;32318;48.858;8.252;2023-05-20T04:19:50;100374.16;;;12.71;69.34
46598;BME280;32318;48.858;8.252;2023-05-20T04:27:51;100374.50;;;12.68;69.50
46598;BME280;32318;48.858;8.252;2023-05-20T04:35:53;100374.19;;;12.63;69.65
46598;BME280;32318;48.858;8.252;2023-05-20T04:43:57;100375.72;;;12.58;69.85
46598;BME280;32318;48.858;8.252;2023-05-20T04:51:59;100369.31;;;12.67;69.29
46598;BME280;32318;48.858;8.252;2023-05-20T05:00:00;100350.56;;;12.67;69.33
46598;BME280;32318;48.858;8.252;2023-05-20T05:08:02;100348.91;;;12.66;69.75
46598;BME280;32318;48.858;8.252;2023-05-20T05:16:03;100347.84;;;12.75;69.69
46598;BME280;32318;48.858;8.252;2023-05-20T05:24:03;100343.44;;;12.82;69.15
46598;BME280;32318;48.858;8.252;2023-05-20T05:32:04;100322.97;;;12.90;69.06
46598;BME280;32318;48.858;8.252;2023-05-20T05:40:06;100326.84;;;13.10;68.63
46598;BME280;32318;48.858;8.252;2023-05-20T05:48:07;100322.09;;;13.21;68.62
46598;BME280;32318;48.858;8.252;2023-05-20T05:56:08;100310.31;;;13.68;67.09
46598;BME280;32318;48.858;8.252;2023-05-20T06:04:08;100320.63;;;13.94;66.73
46598;BME280;32318;48.858;8.252;2023-05-20T06:12:08;100328.41;;;14.19;65.72
46598;BME280;32318;48.858;8.252;2023-05-20T06:20:09;100323.75;;;14.43;65.48
46598;BME280;32318;48.858;8.252;2023-05-20T06:28:09;100312.53;;;14.69;65.70
46598;BME280;32318;48.858;8.252;2023-05-20T06:36:11;100314.13;;;14.85;64.85
46598;BME280;32318;48.858;8.252;2023-05-20T06:44:11;100310.19;;;14.66;65.78
46598;BME280;32318;48.858;8.252;2023-05-20T06:52:11;100304.66;;;14.89;65.28
46598;BME280;32318;48.858;8.252;2023-05-20T07:00:12;100311.63;;;15.27;64.16
46598;BME280;32318;48.858;8.252;2023-05-20T07:08:13;100314.84;;;15.37;64.70
46598;BME280;32318;48.858;8.252;2023-05-20T07:16:13;100294.19;;;15.45;65.27
46598;BME280;32318;48.858;8.252;2023-05-20T07:24:13;100290.69;;;15.79;64.26
46598;BME280;32318;48.858;8.252;2023-05-20T07:32:13;100285.97;;;16.17;63.68
46598;BME280;32318;48.858;8.252;2023-05-20T07:40:14;100285.94;;;16.58;63.43
46598;BME280;32318;48.858;8.252;2023-05-20T07:48:14;100262.75;;;16.77;62.07
46598;BME280;32318;48.858;8.252;2023-05-20T07:56:15;100249.53;;;16.96;62.62
46598;BME280;32318;48.858;8.252;2023-05-20T08:04:15;100252.88;;;17.12;62.85
46598;BME280;32318;48.858;8.252;2023-05-20T08:12:15;100248.91;;;17.21;62.14
46598;BME280;32318;48.858;8.252;2023-05-20T08:20:16;100236.47;;;17.33;61.80
46598;BME280;32318;48.858;8.252;2023-05-20T08:28:16;100225.25;;;17.30;61.54
46598;BME280;32318;48.858;8.252;2023-05-20T08:36:17;100219.41;;;17.53;62.04
46598;BME280;32318;48.858;8.252;2023-05-20T08:44:20;100218.13;;;17.62;61.91
46598;BME280;32318;48.858;8.252;2023-05-20T08:52:20;100213.94;;;17.73;61.76
46598;BME280;32318;48.858;8.252;2023-05-20T09:00:22;100215.59;;;17.81;62.09
46598;BME280;32318;48.858;8.252;2023-05-20T09:08:26;100212.22;;;18.06;60.55
46598;BME280;32318;48.858;8.252;2023-05-20T09:16:26;100223.09;;;18.38;59.99
46598;BME280;32318;48.858;8.252;2023-05-20T09:24:26;100223.03;;;18.44;59.11
46598;BME280;32318;48.858;8.252;2023-05-20T09:32:27;100221.28;;;18.63;58.40
46598;BME280;32318;48.858;8.252;2023-05-20T09:40:28;100207.63;;;18.84;57.81
46598;BME280;32318;48.858;8.252;2023-05-20T09:48:28;100197.09;;;19.01;58.51
46598;BME280;32318;48.858;8.252;2023-05-20T09:56:30;100200.41;;;19.03;58.99
46598;BME280;32318;48.858;8.252;2023-05-20T10:04:33;100189.91;;;19.13;57.15
46598;BME280;32318;48.858;8.252;2023-05-20T10:13:10;100186.50;;;19.24;57.76
46598;BME280;32318;48.858;8.252;2023-05-20T10:21:15;100171.31;;;19.42;56.48
46598;BME280;32318;48.858;8.252;2023-05-20T10:29:16;100166.81;;;19.73;55.28
46598;BME280;32318;48.858;8.252;2023-05-20T10:37:29;100149.56;;;20.04;53.01
46598;BME280;32318;48.858;8.252;2023-05-20T10:45:29;100152.06;;;20.18;53.72
46598;BME280;32318;48.858;8.252;2023-05-20T10:53:39;100142.03;;;20.49;52.45
46598;BME280;32318;48.858;8.252;2023-05-20T11:01:41;100141.47;;;20.59;51.65
46598;BME280;32318;48.858;8.252;2023-05-20T11:09:48;100131.00;;;20.74;52.68
46598;BME280;32318;48.858;8.252;2023-05-20T11:17:55;100122.22;;;20.48;52.56
46598;BME280;32318;48.858;8.252;2023-05-20T11:25:56;100112.88;;;20.75;51.81
46598;BME280;32318;48.858;8.252;2023-05-20T11:34:00;100112.25;;;21.08;51.61
46598;BME280;32318;48.858;8.252;2023-05-20T11:42:02;100112.25;;;21.20;50.67
46598;BME280;32318;48.858;8.252;2023-05-20T11:50:02;100106.69;;;21.27;50.98
46598;BME280;32318;48.858;8.252;2023-05-20T11:58:03;100097.81;;;21.43;50.48
46598;BME280;32318;48.858;8.252;2023-05-20T12:06:04;100093.97;;;21.68;49.50
46598;BME280;32318;48.858;8.252;2023-05-20T12:14:04;100078.47;;;21.81;49.76
46598;BME280;32318;48.858;8.252;2023-05-20T12:22:04;100067.00;;;21.78;49.30
46598;BME280;32318;48.858;8.252;2023-05-20T12:30:06;100074.94;;;21.80;49.69
46598;BME280;32318;48.858;8.252;2023-05-20T12:38:07;100073.03;;;21.81;49.31
46598;BME280;32318;48.858;8.252;2023-05-20T12:46:08;100069.44;;;21.92;48.85
46598;BME280;32318;48.858;8.252;2023-05-20T12:54:08;100056.03;;;22.02;50.45
46598;BME280;32318;48.858;8.252;2023-05-20T13:02:08;100059.16;;;22.40;49.20
46598;BME280;32318;48.858;8.252;2023-05-20T13:10:09;100056.88;;;22.37;48.66
46598;BME280;32318;48.858;8.252;2023-05-20T13:18:10;100030.66;;;22.14;48.94
46598;BME280;32318;48.858;8.252;2023-05-20T13:26:10;100034.81;;;22.33;48.61
46598;BME280;32318;48.858;8.252;2023-05-20T13:34:11;100031.00;;;22.34;48.94
46598;BME280;32318;48.858;8.252;2023-05-20T13:42:11;100018.31;;;22.57;47.73
46598;BME280;32318;48.858;8.252;2023-05-20T13:50:12;100003.25;;;22.49;47.97
46598;BME280;32318;48.858;8.252;2023-05-20T13:58:12;99998.25;;;22.41;48.52
46598;BME280;32318;48.858;8.252;2023-05-20T14:06:13;99987.31;;;22.58;48.25
46598;BME280;32318;48.858;8.252;2023-05-20T14:14:16;99982.53;;;22.65;48.51
46598;BME280;32318;48.858;8.252;2023-05-20T14:22:16;99980.22;;;22.57;48.29
46598;BME280;32318;48.858;8.252;2023-05-20T14:30:16;99990.78;;;22.53;47.85
46598;BME280;32318;48.858;8.252;2023-05-20T14:38:16;99976.13;;;22.54;47.53
46598;BME280;32318;48.858;8.252;2023-05-20T14:46:19;99957.03;;;22.71;48.13
46598;BME280;32318;48.858;8.252;2023-05-20T14:54:19;99948.31;;;22.69;48.65
46598;BME280;32318;48.858;8.252;2023-05-20T15:02:23;99961.28;;;22.62;47.89
46598;BME280;32318;48.858;8.252;2023-05-20T15:10:24;99970.50;;;22.61;48.50
46598;BME280;32318;48.858;8.252;2023-05-20T15:18:24;99968.75;;;22.55;47.97
46598;BME280;32318;48.858;8.252;2023-05-20T15:26:25;99964.69;;;22.75;49.03
46598;BME280;32318;48.858;8.252;2023-05-20T15:34:25;99958.50;;;23.01;47.98
46598;BME280;32318;48.858;8.252;2023-05-20T15:42:25;99967.59;;;22.90;47.70
46598;BME280;32318;48.858;8.252;2023-05-20T15:50:26;99976.34;;;22.92;48.04
46598;BME280;32318;48.858;8.252;2023-05-20T15:58:27;99953.44;;;22.88;48.17
46598;BME280;32318;48.858;8.252;2023-05-20T16:06:27;99950.59;;;23.00;47.67
46598;BME280;32318;48.858;8.252;2023-05-20T16:14:27;99966.22;;;22.87;48.13
46598;BME280;32318;48.858;8.252;2023-05-20T16:22:28;99965.84;;;22.79;48.08
46598;BME280;32318;48.858;8.252;2023-05-20T16:30:28;99958.13;;;22.70;47.77
46598;BME280;32318;48.858;8.252;2023-05-20T16:38:28;99954.19;;;22.44;49.32
46598;BME280;32318;48.858;8.252;2023-05-20T16:46:30;99951.75;;;22.08;50.24
46598;BME280;32318;48.858;8.252;2023-05-20T16:54:30;99952.72;;;21.85;51.02
46598;BME280;32318;48.858;8.252;2023-05-20T17:02:31;99964.47;;;21.74;51.21
46598;BME280;32318;48.858;8.252;2023-05-20T17:10:32;99956.88;;;21.59;51.51
46598;BME280;32318;48.858;8.252;2023-05-20T17:18:32;99959.06;;;21.45;52.53
46598;BME280;32318;48.858;8.252;2023-05-20T17:26:32;99976.91;;;21.41;52.88
46598;BME280;32318;48.858;8.252;2023-05-20T17:34:32;99992.53;;;21.34;52.62
46598;BME280;32318;48.858;8.252;2023-05-20T17:42:33;99996.56;;;21.31;52.68
46598;BME280;32318;48.858;8.252;2023-05-20T17:50:33;99991.25;;;21.24;52.59
46598;BME280;32318;48.858;8.252;2023-05-20T17:58:33;99990.09;;;21.08;53.45
46598;BME280;32318;48.858;8.252;2023-05-20T18:06:34;99994.44;;;20.80;54.90
46598;BME280;32318;48.858;8.252;2023-05-20T18:14:35;99993.25;;;20.52;56.16
46598;BME280;32318;48.858;8.252;2023-05-20T18:22:35;99994.66;;;20.43;56.43
46598;BME280;32318;48.858;8.252;2023-05-20T18:30:35;99996.50;;;20.07;57.83
46598;BME280;32318;48.858;8.252;2023-05-20T18:38:36;99998.09;;;19.84;58.40
46598;BME280;32318;48.858;8.252;2023-05-20T18:46:36;100012.28;;;19.68;59.31
46598;BME280;32318;48.858;8.252;2023-05-20T18:54:36;100007.47;;;19.51;59.50
46598;BME280;32318;48.858;8.252;2023-05-20T19:02:40;100016.16;;;19.41;59.94
46598;BME280;32318;48.858;8.252;2023-05-20T19:10:40;100024.53;;;19.21;60.28
46598;BME280;32318;48.858;8.252;2023-05-20T19:18:41;100032.78;;;19.08;60.97
46598;BME280;32318;48.858;8.252;2023-05-20T19:26:41;100037.41;;;19.07;60.75
46598;BME280;32318;48.858;8.252;2023-05-20T19:34:41;100045.94;;;19.04;60.64
46598;BME280;32318;48.858;8.252;2023-05-20T19:42:42;100061.19;;;18.80;61.02
46598;BME280;32318;48.858;8.252;2023-05-20T19:50:43;100056.06;;;18.72;61.23
46598;BME280;32318;48.858;8.252;2023-05-20T19:58:44;100060.25;;;18.68;61.45
46598;BME280;32318;48.858;8.252;2023-05-20T20:06:44;100069.63;;;18.65;61.08
46598;BME280;32318;48.858;8.252;2023-05-20T20:14:46;100067.25;;;18.50;61.81
46598;BME280;32318;48.858;8.252;2023-05-20T20:22:48;100064.72;;;18.30;62.42
46598;BME280;32318;48.858;8.252;2023-05-20T20:30:48;100062.06;;;18.23;62.69
46598;BME280;32318;48.858;8.252;2023-05-20T20:38:48;100062.78;;;18.12;63.16
46598;BME280;32318;48.858;8.252;2023-05-20T20:46:49;100054.31;;;18.01;63.57
46598;BME280;32318;48.858;8.252;2023-05-20T20:54:50;100044.16;;;17.90;63.64
46598;BME280;32318;48.858;8.252;2023-05-20T21:02:50;100046.97;;;17.77;64.20
46598;BME280;32318;48.858;8.252;2023-05-20T21:10:51;100050.59;;;17.57;64.78
46598;BME280;32318;48.858;8.252;2023-05-20T21:18:51;100045.44;;;17.49;65.25
46598;BME280;32318;48.858;8.252;2023-05-20T21:26:51;100033.66;;;17.36;65.77
46598;BME280;32318;48.858;8.252;2023-05-20T21:34:51;100027.47;;;17.22;66.08
46598;BME280;32318;48.858;8.252;2023-05-20T21:42:52;100012.56;;;17.13;66.35
46598;BME280;32318;48.858;8.252;2023-05-20T21:50:52;100006.59;;;17.04;66.76
46598;BME280;32318;48.858;8.252;2023-05-20T21:58:52;100004.34;;;16.95;67.21
46598;BME280;32318;48.858;8.252;2023-05-20T22:06:53;100002.44;;;16.88;67.64
46598;BME280;32318;48.858;8.252;2023-05-20T22:14:54;100002.28;;;16.76;67.82
46598;BME280;32318;48.858;8.252;2023-05-20T22:22:55;99990.69;;;16.69;67.80
46598;BME280;32318;48.858;8.252;2023-05-20T22:30:55;99996.91;;;16.63;68.09
46598;BME280;32318;48.858;8.252;2023-05-20T22:38:55;99984.69;;;16.54;68.44
46598;BME280;32318;48.858;8.252;2023-05-20T22:46:55;99984.69;;;16.47;69.23
46598;BME280;32318;48.858;8.252;2023-05-20T22:54:56;99975.38;;;16.50;68.80
46598;BME280;32318;48.858;8.252;2023-05-20T23:02:57;99966.06;;;16.45;68.82
46598;BME280;32318;48.858;8.252;2023-05-20T23:10:57;99968.13;;;16.37;69.40
46598;BME280;32318;48.858;8.252;2023-05-20T23:18:58;99959.22;;;16.36;69.27
46598;BME280;32318;48.858;8.252;2023-05-20T23:26:58;99946.16;;;16.26;69.57
46598;BME280;32318;48.858;8.252;2023-05-20T23:34:59;99943.06;;;16.23;69.62
46598;BME280;32318;48.858;8.252;2023-05-20T23:43:03;99933.75;;;16.12;70.10
46598;BME280;32318;48.858;8.252;2023-05-20T23:51:04;99939.97;;;15.99;71.34
46598;BME280;32318;48.858;8.252;2023-05-20T23:59:05;99919.28;;;15.93;71.49
